Time;durP1;ratioP1;P1;durP2;ratioP2;P2;SDS_P1;SDS_P2;PMS_P1;PMS_P2;Temp;Humidity;BMP_temperature;BMP_pressure;BME280_temperature;BME280_humidity;BME280_pressure;Samples;Min_cycle;Max_cycle;Signal;HPM_P1;HPM_P2
2020/12/08 00:00:24;;;;;;;21.05;9.90;;;;;;;1.22;85.67;97343.94;5024977;28;20033;-70
2020/12/08 00:02:50;;;;;;;23.20;11.15;;;;;;;1.21;85.48;97326.31;5032463;28;20022;-71
2020/12/08 00:05:17;;;;;;;20.90;10.73;;;;;;;1.23;85.55;97318.94;5015577;28;20076;-71
2020/12/08 00:07:42;;;;;;;24.15;11.20;;;;;;;1.26;85.46;97324.75;5024550;28;20033;-72
2020/12/08 00:10:08;;;;;;;20.65;10.23;;;;;;;1.28;85.73;97328.06;5021154;28;20021;-71
2020/12/08 00:12:33;;;;;;;22.70;11.15;;;;;;;1.33;85.60;97326.69;5051072;28;20021;-70
2020/12/08 00:14:58;;;;;;;23.67;11.82;;;;;;;1.33;85.27;97335.50;5016833;28;20029;-71
2020/12/08 00:17:24;;;;;;;21.27;10.13;;;;;;;1.35;85.69;97320.16;5028945;28;20387;-71
2020/12/08 00:19:49;;;;;;;22.67;10.77;;;;;;;1.30;85.56;97317.22;5015383;28;20361;-69
2020/12/08 00:22:15;;;;;;;20.38;10.48;;;;;;;1.39;85.50;97326.81;5016537;28;20029;-69
2020/12/08 00:24:40;;;;;;;23.27;10.32;;;;;;;1.38;85.24;97322.47;5027408;28;20040;-69
2020/12/08 00:27:10;;;;;;;22.15;10.68;;;;;;;1.37;85.38;97318.16;5023772;28;20442;-69
2020/12/08 00:29:39;;;;;;;26.23;12.10;;;;;;;1.28;85.45;97298.78;5017329;28;20040;-71
2020/12/08 00:32:06;;;;;;;26.38;12.20;;;;;;;1.27;85.66;97299.75;5020743;28;20080;-71
2020/12/08 00:34:31;;;;;;;22.42;10.90;;;;;;;1.25;85.24;97291.13;5031780;28;20441;-70
2020/12/08 00:36:57;;;;;;;25.15;12.05;;;;;;;1.38;85.70;97308.31;5020721;28;20029;-71
2020/12/08 00:39:22;;;;;;;24.85;11.85;;;;;;;1.36;85.79;97305.00;5030956;28;20071;-71
2020/12/08 00:41:48;;;;;;;23.90;11.15;;;;;;;1.35;85.79;97309.50;5019284;28;20052;-70
2020/12/08 00:44:13;;;;;;;22.83;11.48;;;;;;;1.34;85.54;97321.19;5031953;28;20033;-70
2020/12/08 00:46:38;;;;;;;25.08;11.30;;;;;;;1.37;85.53;97317.34;5043986;28;20029;-71
2020/12/08 00:49:05;;;;;;;24.02;11.63;;;;;;;1.40;85.41;97317.78;5042318;28;20479;-71
2020/12/08 00:51:30;;;;;;;25.52;11.45;;;;;;;1.39;85.64;97317.97;5035313;28;20040;-69
2020/12/08 00:53:56;;;;;;;26.25;11.10;;;;;;;1.47;85.26;97317.91;5035198;28;20033;-68
2020/12/08 00:56:21;;;;;;;23.33;11.35;;;;;;;1.49;85.29;97318.53;5035092;28;20076;-68
2020/12/08 00:58:46;;;;;;;23.50;11.23;;;;;;;1.44;85.19;97297.78;5035512;28;20490;-72
2020/12/08 01:01:11;;;;;;;24.60;11.85;;;;;;;1.54;85.23;97314.28;5035298;28;20029;-69
2020/12/08 01:03:37;;;;;;;26.58;12.18;;;;;;;1.55;84.82;97315.16;5035229;28;20018;-70
2020/12/08 01:06:03;;;;;;;28.67;12.18;;;;;;;1.59;84.92;97302.28;5030509;28;20479;-71
2020/12/08 01:08:31;;;;;;;22.70;11.32;;;;;;;1.67;84.77;97319.00;5034166;28;20044;-71
2020/12/08 01:10:56;;;;;;;23.50;12.15;;;;;;;1.73;84.50;97320.13;5019658;28;20041;-71
2020/12/08 01:13:22;;;;;;;28.15;12.25;;;;;;;1.73;84.48;97317.47;5034297;28;20605;-71
2020/12/08 01:15:48;;;;;;;24.30;11.88;;;;;;;1.67;84.71;97311.00;5032954;28;20026;-71
2020/12/08 01:18:14;;;;;;;22.33;11.43;;;;;;;1.70;84.35;97320.47;5016779;28;20128;-71
2020/12/08 01:20:39;;;;;;;22.33;11.05;;;;;;;1.81;83.66;97335.19;5019047;28;20033;-71
2020/12/08 01:23:05;;;;;;;25.63;11.68;;;;;;;1.84;83.46;97335.66;5021731;28;20479;-69
2020/12/08 01:25:31;;;;;;;23.55;11.82;;;;;;;1.74;83.59;97330.59;5026094;28;20037;-69
2020/12/08 01:27:57;;;;;;;27.20;12.80;;;;;;;1.75;83.30;97320.75;5025912;28;20092;-69
2020/12/08 01:30:22;;;;;;;24.90;12.18;;;;;;;1.88;83.75;97326.25;5018838;28;20096;-69
2020/12/08 01:32:47;;;;;;;25.92;12.48;;;;;;;1.88;83.71;97320.09;5036352;28;20039;-70
2020/12/08 01:35:12;;;;;;;23.95;11.55;;;;;;;1.91;83.56;97314.38;5054475;28;20056;-71
2020/12/08 01:37:38;;;;;;;23.80;12.55;;;;;;;1.88;83.18;97306.75;5033695;28;20060;-71
2020/12/08 01:40:04;;;;;;;26.73;11.70;;;;;;;1.90;83.37;97313.56;5021031;28;20025;-71
2020/12/08 01:42:29;;;;;;;23.77;10.98;;;;;;;1.80;83.07;97286.34;5034571;28;20129;-69
2020/12/08 01:44:55;;;;;;;21.17;11.20;;;;;;;1.89;83.39;97303.09;5034493;28;20546;-69
2020/12/08 01:47:20;;;;;;;21.05;10.23;;;;;;;1.84;83.55;97297.50;5036122;28;20083;-71
2020/12/08 01:49:47;;;;;;;21.67;11.02;;;;;;;1.85;83.40;97315.97;5031724;28;20526;-71
2020/12/08 01:52:17;;;;;;;22.65;10.63;;;;;;;1.81;83.64;97319.16;5033548;28;20029;-71
2020/12/08 01:54:44;;;;;;;22.95;11.20;;;;;;;1.78;83.71;97308.88;5014683;28;20037;-71
2020/12/08 01:57:09;;;;;;;23.20;10.95;;;;;;;1.74;83.83;97303.94;5030930;28;20494;-71
2020/12/08 01:59:35;;;;;;;24.77;12.32;;;;;;;1.74;83.39;97298.59;5028722;28;20073;-71
2020/12/08 02:02:00;;;;;;;27.55;12.68;;;;;;;1.81;83.72;97306.69;5033731;28;20033;-69
2020/12/08 02:04:26;;;;;;;23.42;11.77;;;;;;;1.72;83.73;97286.47;5034315;28;20025;-71
2020/12/08 02:06:51;;;;;;;22.20;11.80;;;;;;;1.83;83.04;97309.16;5033965;28;20034;-71
2020/12/08 02:09:16;;;;;;;24.30;11.35;;;;;;;1.88;82.09;97304.91;5028759;28;20454;-71
2020/12/08 02:11:41;;;;;;;24.15;11.98;;;;;;;1.93;82.44;97299.84;5022784;28;20050;-70
2020/12/08 02:14:07;;;;;;;19.98;10.88;;;;;;;1.90;82.48;97296.75;5018956;28;20022;-71
2020/12/08 02:16:32;;;;;;;24.05;11.40;;;;;;;1.93;83.00;97299.84;5034888;28;20372;-71
2020/12/08 02:18:57;;;;;;;23.20;11.32;;;;;;;1.91;83.14;97304.56;5043787;28;20168;-71
2020/12/08 02:21:30;;;;;;;24.75;11.65;;;;;;;1.80;83.53;97296.19;5033129;28;20483;-71
2020/12/08 02:23:56;;;;;;;23.00;10.68;;;;;;;1.80;83.87;97291.69;5018392;28;20554;-71
2020/12/08 02:26:21;;;;;;;25.77;12.00;;;;;;;1.73;83.51;97301.47;5028022;28;20049;-71
2020/12/08 02:28:46;;;;;;;30.42;12.27;;;;;;;1.69;84.02;97277.00;5023186;28;20064;-71
2020/12/08 02:31:12;;;;;;;22.58;11.45;;;;;;;1.69;84.10;97284.16;5025575;28;20491;-71
2020/12/08 02:33:37;;;;;;;23.33;11.60;;;;;;;1.70;84.06;97285.81;5033733;28;20021;-71
2020/12/08 02:36:02;;;;;;;27.02;11.80;;;;;;;1.66;83.80;97290.69;5024824;28;20393;-71
2020/12/08 02:38:28;;;;;;;25.27;11.90;;;;;;;1.66;84.12;97289.88;5031765;28;20096;-71
2020/12/08 02:40:54;;;;;;;26.48;12.27;;;;;;;1.62;84.20;97285.91;5015695;28;20026;-70
2020/12/08 02:46:04;;;;;;;25.65;12.05;;;;;;;1.57;84.46;97283.78;5014191;28;20036;-71
2020/12/08 02:48:29;;;;;;;24.30;12.57;;;;;;;1.57;84.29;97285.63;5025184;28;20474;-70
2020/12/08 02:50:54;;;;;;;26.45;12.07;;;;;;;1.42;84.09;97273.13;5014735;28;20510;-71
2020/12/08 02:53:19;;;;;;;27.15;11.48;;;;;;;1.58;83.50;97284.63;5023587;28;20038;-70
2020/12/08 02:55:49;;;;;;;21.70;10.07;;;;;;;1.58;83.42;97284.63;5015851;28;20059;-71
2020/12/08 02:58:15;;;;;;;22.75;11.23;;;;;;;1.52;83.11;97275.53;5027423;28;20120;-71
2020/12/08 03:00:40;;;;;;;26.33;11.82;;;;;;;1.57;83.73;97282.97;5019510;28;20037;-71
2020/12/08 03:03:06;;;;;;;27.10;11.80;;;;;;;1.64;83.26;97290.03;5015438;28;20036;-70
2020/12/08 03:05:31;;;;;;;22.95;11.55;;;;;;;1.66;82.99;97292.53;5031787;28;20059;-71
2020/12/08 03:07:56;;;;;;;24.10;12.07;;;;;;;1.65;82.97;97285.53;5028889;28;20040;-71
2020/12/08 03:10:22;;;;;;;24.70;11.45;;;;;;;1.78;82.91;97295.56;5018544;28;20026;-71
2020/12/08 03:12:47;;;;;;;22.42;11.57;;;;;;;1.74;82.35;97289.78;5029896;28;20033;-71
2020/12/08 03:15:12;;;;;;;23.38;11.00;;;;;;;1.68;82.48;97278.00;5013724;28;20045;-71
2020/12/08 03:17:38;;;;;;;24.50;12.15;;;;;;;1.77;82.26;97292.06;5015678;28;20499;-70
2020/12/08 03:20:04;;;;;;;25.73;11.93;;;;;;;1.73;82.19;97288.13;5015321;28;20034;-71
2020/12/08 03:22:29;;;;;;;21.25;10.73;;;;;;;1.82;82.33;97296.84;5036972;28;20637;-71
2020/12/08 03:24:55;;;;;;;24.58;11.85;;;;;;;1.73;82.40;97275.63;5034003;28;20034;-69
2020/12/08 03:27:20;;;;;;;24.30;10.88;;;;;;;1.73;81.87;97270.28;5040196;28;20395;-71
2020/12/08 03:29:45;;;;;;;25.25;12.43;;;;;;;1.72;82.65;97283.78;5040309;28;20093;-69
2020/12/08 03:32:11;;;;;;;22.30;11.90;;;;;;;1.64;82.68;97275.91;5034750;28;20029;-70
2020/12/08 03:34:36;;;;;;;25.15;11.80;;;;;;;1.62;83.00;97280.56;5035080;28;20093;-71
2020/12/08 03:37:02;;;;;;;25.65;12.15;;;;;;;1.51;82.85;97274.69;5035693;28;20034;-71
2020/12/08 03:39:27;;;;;;;25.30;11.70;;;;;;;1.50;83.32;97272.22;5054107;28;20033;-71
2020/12/08 03:41:57;;;;;;;25.17;11.30;;;;;;;1.37;83.58;97272.88;5055210;28;20026;-71
2020/12/08 03:44:22;;;;;;;24.30;11.75;;;;;;;1.29;84.42;97279.09;5052117;28;20104;-70
2020/12/08 03:46:48;;;;;;;28.02;12.48;;;;;;;1.16;84.61;97278.91;5036013;28;20112;-68
2020/12/08 03:49:13;;;;;;;27.48;12.77;;;;;;;1.07;84.72;97264.00;5032982;28;20080;-70
2020/12/08 03:51:38;;;;;;;26.92;12.32;;;;;;;1.12;84.79;97277.59;5035215;28;20029;-69
2020/12/08 03:54:03;;;;;;;24.58;11.57;;;;;;;1.09;84.64;97270.78;5018382;28;20109;-70
2020/12/08 03:56:29;;;;;;;25.67;12.02;;;;;;;1.06;84.74;97273.81;5023679;28;20072;-71
2020/12/08 03:58:54;;;;;;;26.83;12.77;;;;;;;1.15;84.71;97279.06;5032735;28;20052;-71
2020/12/08 04:01:21;;;;;;;25.05;10.85;;;;;;;1.01;84.38;97254.91;5036156;28;20030;-71
2020/12/08 04:03:49;;;;;;;25.27;11.95;;;;;;;1.08;84.65;97281.66;5035865;28;20041;-71
2020/12/08 04:06:14;;;;;;;22.60;11.02;;;;;;;1.00;84.83;97284.38;5022025;28;20022;-71
2020/12/08 04:08:41;;;;;;;25.52;12.55;;;;;;;1.06;84.58;97273.81;5019433;28;20029;-71
2020/12/08 04:11:06;;;;;;;24.75;11.30;;;;;;;0.98;84.72;97263.25;5018376;28;20411;-71
2020/12/08 04:13:32;;;;;;;27.17;12.60;;;;;;;0.89;84.93;97261.66;5037091;28;20029;-71
2020/12/08 04:15:57;;;;;;;25.23;11.77;;;;;;;0.91;85.23;97267.63;5034799;28;20029;-70
2020/12/08 04:18:23;;;;;;;25.38;11.57;;;;;;;0.92;84.92;97277.28;5048449;28;20026;-69
2020/12/08 04:20:49;;;;;;;27.42;12.27;;;;;;;0.87;84.98;97279.66;5016825;28;20498;-69
2020/12/08 04:23:16;;;;;;;25.55;11.57;;;;;;;0.85;85.22;97281.69;5020966;28;20017;-69
2020/12/08 04:25:41;;;;;;;24.58;12.18;;;;;;;0.74;85.25;97277.59;5029740;28;20034;-70
2020/12/08 04:28:07;;;;;;;26.77;12.88;;;;;;;0.81;85.36;97280.38;5014604;28;20037;-69
2020/12/08 04:30:33;;;;;;;26.33;12.00;;;;;;;0.75;85.50;97292.56;5014470;28;20026;-69
2020/12/08 04:32:59;;;;;;;29.50;12.80;;;;;;;0.82;85.28;97295.34;5015955;28;20503;-69
2020/12/08 04:35:24;;;;;;;25.17;11.73;;;;;;;0.84;85.92;97285.34;5015638;28;20026;-70
2020/12/08 04:37:49;;;;;;;24.08;11.95;;;;;;;0.69;86.01;97279.16;5015879;28;20026;-69
2020/12/08 04:40:14;;;;;;;25.40;12.18;;;;;;;0.59;86.12;97288.19;5049132;22;20036;-74
2020/12/08 04:42:45;;;;;;;26.30;12.75;;;;;;;0.66;86.30;97283.00;5054950;28;20024;-75
2020/12/08 04:45:11;;;;;;;27.77;13.32;;;;;;;0.56;86.15;97267.25;5054656;28;20025;-75
2020/12/08 04:47:38;;;;;;;25.02;11.55;;;;;;;0.54;86.27;97277.25;5051055;28;20028;-74
2020/12/08 04:50:03;;;;;;;29.90;13.02;;;;;;;0.49;86.47;97279.59;5034974;28;20479;-74
2020/12/08 04:52:29;;;;;;;30.08;13.32;;;;;;;0.22;86.94;97260.50;5052658;28;20103;-74
2020/12/08 04:54:54;;;;;;;28.98;13.30;;;;;;;0.18;87.79;97285.81;5053370;28;20060;-74
2020/12/08 04:57:19;;;;;;;29.08;12.65;;;;;;;-0.03;88.14;97266.97;5052792;28;20735;-75
2020/12/08 04:59:44;;;;;;;28.05;11.85;;;;;;;-0.07;88.37;97277.13;5054952;28;20032;-74
2020/12/08 05:02:10;;;;;;;29.63;13.02;;;;;;;-0.09;88.50;97278.31;5054907;28;20024;-75
2020/12/08 05:04:35;;;;;;;28.52;12.65;;;;;;;0.01;88.63;97294.88;5052929;28;20041;-74
2020/12/08 05:07:02;;;;;;;28.05;11.95;;;;;;;0.11;88.30;97290.16;5056175;28;20478;-74
2020/12/08 05:09:27;;;;;;;29.27;12.82;;;;;;;0.06;87.74;97291.69;5051556;28;20037;-77
2020/12/08 05:11:59;;;;;;;28.33;12.40;;;;;;;-0.02;88.18;97287.25;5054164;28;20040;-76
2020/12/08 05:14:25;;;;;;;32.10;14.38;;;;;;;-0.06;88.27;97283.28;5051702;28;20025;-75
2020/12/08 05:17:02;;;;;;;26.45;12.07;;;;;;;-0.14;88.41;97278.81;5043128;28;20136;-76
2020/12/08 05:19:27;;;;;;;26.85;12.82;;;;;;;-0.09;88.42;97276.47;5052362;28;20032;-75
2020/12/08 05:21:52;;;;;;;27.95;12.20;;;;;;;0.00;88.39;97271.97;5053891;28;20078;-77
2020/12/08 05:24:26;;;;;;;28.90;13.02;;;;;;;0.02;88.36;97271.75;5054320;28;20417;-77
2020/12/08 05:27:05;;;;;;;27.63;13.15;;;;;;;0.05;88.35;97274.06;5053566;28;20487;-77
2020/12/08 05:29:32;;;;;;;21.13;9.88;;;;;;;0.00;88.20;97269.31;5050308;28;20394;-77
2020/12/08 05:32:15;;;;;;;27.63;12.88;;;;;;;-0.04;88.12;97276.78;5052889;28;20501;-77
2020/12/08 05:34:43;;;;;;;28.95;13.00;;;;;;;-0.04;88.16;97279.44;5050628;28;20356;-77
2020/12/08 05:37:15;;;;;;;26.85;12.57;;;;;;;-0.12;88.46;97273.34;5052678;28;20063;-77
2020/12/08 05:39:40;;;;;;;28.15;13.23;;;;;;;-0.24;88.91;97263.09;5050165;28;20029;-76
2020/12/08 05:42:13;;;;;;;29.65;13.43;;;;;;;-0.18;88.95;97279.31;5053859;28;20074;-76
2020/12/08 05:44:39;;;;;;;29.30;13.15;;;;;;;-0.17;88.79;97273.84;5052631;28;20367;-76
2020/12/08 05:47:04;;;;;;;34.85;14.93;;;;;;;-0.16;88.77;97272.00;5044522;28;20032;-76
2020/12/08 05:49:29;;;;;;;31.60;13.90;;;;;;;-0.30;88.85;97247.81;5041822;28;20025;-72
2020/12/08 05:51:55;;;;;;;31.50;13.93;;;;;;;-0.18;88.81;97247.44;5037912;28;20433;-75
2020/12/08 05:54:21;;;;;;;29.88;13.68;;;;;;;-0.03;88.28;97259.00;5051212;28;20017;-75
2020/12/08 05:56:48;;;;;;;31.98;13.40;;;;;;;0.02;87.97;97248.66;5052083;28;20477;-82
2020/12/08 05:59:26;;;;;;;34.35;14.73;;;;;;;0.03;87.81;97255.66;5053189;28;20028;-81
2020/12/08 06:01:52;;;;;;;28.67;12.70;;;;;;;0.19;87.99;97268.84;5051956;28;20035;-72
2020/12/08 06:04:17;;;;;;;24.83;12.27;;;;;;;0.34;87.07;97262.75;5060109;28;20024;-72
2020/12/08 06:06:55;;;;;;;29.02;12.60;;;;;;;0.52;86.28;97265.13;5053528;28;20436;-72
2020/12/08 06:09:30;;;;;;;27.63;12.45;;;;;;;0.47;86.27;97270.97;5053577;28;20016;-72
2020/12/08 06:11:56;;;;;;;26.73;11.45;;;;;;;0.46;86.15;97261.34;5052764;28;20048;-75
2020/12/08 06:14:29;;;;;;;28.38;12.18;;;;;;;0.43;86.42;97253.72;5049037;28;20025;-75
2020/12/08 06:17:02;;;;;;;23.48;11.27;;;;;;;0.33;86.61;97256.59;5068462;28;20474;-75
2020/12/08 06:19:27;;;;;;;29.92;13.35;;;;;;;0.33;86.60;97261.09;5051723;28;20052;-75
2020/12/08 06:21:52;;;;;;;28.42;12.93;;;;;;;0.36;86.82;97274.88;5052326;28;20494;-76
2020/12/08 06:24:18;;;;;;;25.23;11.82;;;;;;;0.30;86.53;97267.59;5056671;28;20067;-76
2020/12/08 06:26:43;;;;;;;28.45;12.73;;;;;;;0.39;86.77;97284.34;5051215;28;20029;-76
2020/12/08 06:29:10;;;;;;;26.83;12.15;;;;;;;0.56;85.98;97287.72;5052413;28;20405;-75
2020/12/08 06:31:46;;;;;;;27.38;12.40;;;;;;;0.55;85.75;97276.25;5053193;28;20107;-76
2020/12/08 06:34:26;;;;;;;26.38;12.07;;;;;;;0.53;85.50;97272.94;5046686;28;20036;-75
2020/12/08 06:36:54;;;;;;;27.67;13.10;;;;;;;0.38;86.11;97283.50;5054024;28;20441;-72
2020/12/08 06:39:21;;;;;;;28.05;13.30;;;;;;;0.32;86.67;97283.41;5051728;28;20086;-74
2020/12/08 06:41:46;;;;;;;29.20;13.00;;;;;;;0.03;87.02;97274.25;5048429;28;20041;-77
2020/12/08 06:44:14;;;;;;;31.55;14.23;;;;;;;0.12;87.96;97291.81;5051387;28;20031;-78
2020/12/08 06:46:54;;;;;;;28.92;12.98;;;;;;;-0.03;87.94;97280.25;5050275;28;20406;-73
2020/12/08 06:49:19;;;;;;;27.58;12.60;;;;;;;-0.15;88.48;97290.47;5061421;28;20024;-73
2020/12/08 06:51:53;;;;;;;30.20;13.38;;;;;;;-0.32;89.13;97270.25;5052534;28;20071;-73
2020/12/08 06:54:18;;;;;;;31.48;13.60;;;;;;;-0.34;88.99;97277.56;5051940;28;20033;-73
2020/12/08 06:56:43;;;;;;;28.15;13.55;;;;;;;-0.22;89.09;97277.03;5050957;28;20470;-77
2020/12/08 06:59:09;;;;;;;27.23;13.05;;;;;;;-0.04;88.04;97271.47;5050819;28;20028;-79
2020/12/08 07:01:37;;;;;;;29.05;13.07;;;;;;;0.06;87.55;97273.91;5051768;28;20029;-79
2020/12/08 07:04:03;;;;;;;26.42;12.38;;;;;;;-0.06;87.42;97273.47;5048663;28;20013;-74
2020/12/08 07:06:28;;;;;;;30.20;13.45;;;;;;;-0.08;87.39;97274.63;5052074;28;20035;-73
2020/12/08 07:08:54;;;;;;;29.15;12.50;;;;;;;-0.19;88.03;97291.78;5052222;28;20061;-74
2020/12/08 07:11:21;;;;;;;27.77;13.10;;;;;;;-0.24;88.66;97310.09;5045201;28;20021;-73
2020/12/08 07:14:04;;;;;;;27.42;13.13;;;;;;;-0.29;88.54;97301.78;5048997;28;20066;-71
2020/12/08 07:16:33;;;;;;;27.42;12.85;;;;;;;-0.23;88.17;97306.44;5050166;28;20083;-75
2020/12/08 07:18:59;;;;;;;28.10;13.45;;;;;;;-0.22;88.25;97308.09;5050718;28;20391;-76
2020/12/08 07:21:24;;;;;;;30.10;13.30;;;;;;;-0.34;88.79;97307.66;5051429;28;20064;-78
2020/12/08 07:23:52;;;;;;;29.15;13.05;;;;;;;-0.34;89.17;97304.13;5051950;28;20028;-77
2020/12/08 07:26:22;;;;;;;27.35;12.93;;;;;;;-0.27;88.99;97311.25;5053062;28;20083;-77
2020/12/08 07:28:47;;;;;;;30.23;13.65;;;;;;;-0.30;88.74;97308.94;5052229;28;20071;-77
2020/12/08 07:31:21;;;;;;;24.83;12.10;;;;;;;-0.17;88.55;97318.22;5043285;28;20021;-76
2020/12/08 07:33:47;;;;;;;26.98;12.77;;;;;;;-0.14;88.36;97317.88;5052496;28;20047;-76
2020/12/08 07:36:29;;;;;;;30.75;12.50;;;;;;;-0.05;88.54;97307.03;5052458;28;20578;-75
2020/12/08 07:38:57;;;;;;;35.85;14.45;;;;;;;0.07;87.95;97310.13;5051190;28;20497;-74
2020/12/08 07:41:25;;;;;;;30.05;13.13;;;;;;;0.15;86.99;97310.06;5051222;28;20029;-75
2020/12/08 07:43:51;;;;;;;29.42;13.32;;;;;;;0.48;86.10;97312.56;5049258;28;20026;-74
2020/12/08 07:46:27;;;;;;;31.30;13.68;;;;;;;0.65;85.19;97330.09;5051947;28;20024;-72
2020/12/08 07:49:07;;;;;;;31.77;13.88;;;;;;;0.79;84.48;97325.00;5052076;28;20548;-72
2020/12/08 07:51:33;;;;;;;30.13;12.63;;;;;;;0.96;84.07;97336.34;5050764;28;20033;-72
2020/12/08 07:54:00;;;;;;;26.48;12.85;;;;;;;1.14;82.67;97330.69;5052595;28;20117;-71
2020/12/08 07:56:30;;;;;;;30.52;13.82;;;;;;;1.12;82.84;97316.72;5054468;28;20024;-76
2020/12/08 07:58:56;;;;;;;26.10;12.63;;;;;;;1.14;83.20;97336.03;5038539;28;20064;-74
2020/12/08 08:01:22;;;;;;;25.60;11.95;;;;;;;1.22;83.50;97346.59;5047647;28;20037;-75
2020/12/08 08:03:48;;;;;;;25.48;11.93;;;;;;;1.25;82.31;97354.22;5052946;28;20036;-75
2020/12/08 08:06:18;;;;;;;28.73;13.35;;;;;;;1.20;82.28;97351.28;5053024;28;20024;-74
2020/12/08 08:08:47;;;;;;;24.77;12.25;;;;;;;1.08;83.14;97341.06;5053434;28;20021;-76
2020/12/08 08:11:12;;;;;;;24.08;12.27;;;;;;;1.27;83.05;97346.88;5051815;28;20080;-76
2020/12/08 08:13:38;;;;;;;24.92;11.57;;;;;;;1.15;82.74;97337.66;5050868;28;20444;-77
2020/12/08 08:16:04;;;;;;;23.90;12.18;;;;;;;1.31;82.38;97348.19;5052721;28;20025;-77
2020/12/08 08:18:32;;;;;;;31.20;13.68;;;;;;;1.17;82.14;97340.97;5051034;28;20056;-79
2020/12/08 08:20:59;;;;;;;27.60;12.60;;;;;;;1.44;81.11;97352.88;5051179;28;20024;-77
2020/12/08 08:23:24;;;;;;;26.23;13.25;;;;;;;1.60;81.10;97350.09;5049594;28;20098;-77
2020/12/08 08:25:49;;;;;;;27.23;13.38;;;;;;;1.54;80.63;97340.94;5054665;28;20394;-76
2020/12/08 08:28:14;;;;;;;26.00;12.98;;;;;;;1.76;80.15;97354.41;5051789;28;20036;-74
2020/12/08 08:30:40;;;;;;;25.05;12.60;;;;;;;1.64;80.48;97340.69;5054553;28;20033;-77
2020/12/08 08:33:05;;;;;;;31.73;13.00;;;;;;;1.88;80.10;97354.78;5054885;28;20032;-76
2020/12/08 08:35:30;;;;;;;25.83;12.25;;;;;;;1.73;80.13;97352.13;5054517;28;20029;-77
2020/12/08 08:37:59;;;;;;;27.52;13.00;;;;;;;1.54;80.83;97343.63;5053276;28;20037;-76
2020/12/08 08:40:24;;;;;;;27.43;12.57;;;;;;;1.49;81.00;97340.69;5056940;28;20044;-76
2020/12/08 08:42:50;;;;;;;28.02;13.35;;;;;;;1.43;81.20;97337.91;5055776;28;20029;-76
2020/12/08 08:45:15;;;;;;;25.30;12.88;;;;;;;1.38;80.85;97351.78;5055725;28;20025;-74
2020/12/08 08:47:41;;;;;;;25.63;13.18;;;;;;;1.39;81.43;97349.94;5046795;28;20438;-76
2020/12/08 08:50:06;;;;;;;26.20;13.55;;;;;;;1.48;81.26;97364.84;5057529;28;20098;-69
2020/12/08 08:52:32;;;;;;;26.60;12.90;;;;;;;1.70;81.06;97355.13;5048846;28;20033;-74
2020/12/08 08:54:58;;;;;;;26.52;13.27;;;;;;;2.12;80.15;97349.16;5054554;28;20021;-74
2020/12/08 08:57:23;;;;;;;27.85;13.20;;;;;;;3.07;77.01;97352.66;5053933;28;20037;-74
2020/12/08 08:59:48;;;;;;;28.25;12.60;;;;;;;3.85;73.34;97345.47;5053773;28;20119;-76
2020/12/08 09:02:14;;;;;;;22.50;12.63;;;;;;;4.15;71.73;97339.84;5055072;28;20028;-76
2020/12/08 09:04:39;;;;;;;22.73;11.65;;;;;;;5.97;67.52;97333.50;5054958;28;20024;-72
2020/12/08 09:07:04;;;;;;;24.45;12.38;;;;;;;7.44;61.95;97344.31;5054264;28;20021;-73
2020/12/08 09:09:30;;;;;;;19.27;11.63;;;;;;;8.94;58.09;97340.47;5053541;28;20098;-73
2020/12/08 09:11:55;;;;;;;24.90;13.60;;;;;;;10.28;55.08;97351.56;5051034;28;20021;-70
2020/12/08 09:14:20;;;;;;;24.38;13.55;;;;;;;11.09;51.96;97351.59;5048830;28;20021;-75
2020/12/08 09:16:45;;;;;;;24.65;14.48;;;;;;;11.55;51.61;97344.28;5052727;28;20040;-74
2020/12/08 09:19:11;;;;;;;23.42;13.73;;;;;;;12.38;49.58;97349.06;5053833;28;20086;-74
2020/12/08 09:21:36;;;;;;;21.05;13.07;;;;;;;12.64;49.17;97347.50;5053062;28;20032;-74
2020/12/08 09:24:02;;;;;;;21.10;14.65;;;;;;;12.90;47.09;97343.19;5054315;28;20496;-75
2020/12/08 09:26:27;;;;;;;22.67;13.70;;;;;;;13.81;47.05;97356.06;5051517;28;20043;-75
2020/12/08 09:28:52;;;;;;;20.02;13.93;;;;;;;13.78;45.44;97353.84;5053124;28;20074;-76
2020/12/08 09:31:18;;;;;;;17.80;12.88;;;;;;;13.81;44.87;97339.75;5054023;28;20112;-76
2020/12/08 09:33:46;;;;;;;19.38;13.18;;;;;;;13.80;45.75;97338.91;5053816;28;20052;-77
2020/12/08 09:36:11;;;;;;;18.70;13.98;;;;;;;14.42;44.36;97345.59;5052446;28;20479;-77
2020/12/08 09:38:36;;;;;;;23.02;14.70;;;;;;;14.02;44.54;97335.28;5052395;28;20040;-71
2020/12/08 09:41:02;;;;;;;21.10;12.88;;;;;;;14.86;44.45;97342.56;5049033;28;20033;-73
2020/12/08 09:43:27;;;;;;;18.33;13.32;;;;;;;15.29;44.42;97337.75;5048233;28;20475;-73
2020/12/08 09:45:52;;;;;;;17.27;13.00;;;;;;;15.86;42.81;97335.13;5051151;28;20081;-70
2020/12/08 09:48:18;;;;;;;19.45;13.07;;;;;;;15.36;42.14;97329.34;5052675;28;20513;-70
2020/12/08 09:50:43;;;;;;;17.67;14.20;;;;;;;15.82;41.44;97332.09;5052871;28;20032;-75
2020/12/08 09:53:08;;;;;;;18.58;13.98;;;;;;;15.91;41.70;97330.47;5050912;28;20478;-74
2020/12/08 09:55:33;;;;;;;16.80;13.38;;;;;;;16.43;41.30;97325.75;5049208;28;20567;-74
2020/12/08 09:57:59;;;;;;;16.48;12.52;;;;;;;16.51;40.84;97325.19;5049154;28;20033;-73
2020/12/08 10:00:24;;;;;;;14.30;12.05;;;;;;;15.99;40.76;97320.94;5054998;28;20029;-75
2020/12/08 10:02:49;;;;;;;16.55;12.73;;;;;;;16.63;40.28;97319.41;5054737;28;20036;-73
2020/12/08 10:05:15;;;;;;;16.25;13.68;;;;;;;15.78;40.82;97310.03;5052600;28;20072;-72
2020/12/08 10:07:42;;;;;;;15.30;12.27;;;;;;;16.68;39.99;97316.66;5051847;28;20035;-73
2020/12/08 10:10:08;;;;;;;15.27;13.25;;;;;;;17.05;39.32;97312.69;5051892;28;20021;-73
2020/12/08 10:12:33;;;;;;;17.40;13.50;;;;;;;15.92;41.11;97313.00;5051801;28;20035;-73
2020/12/08 10:14:59;;;;;;;16.52;13.73;;;;;;;16.04;41.82;97309.19;5051959;28;20049;-73
2020/12/08 10:17:24;;;;;;;16.73;12.63;;;;;;;16.93;39.62;97312.22;5050872;28;20029;-73
2020/12/08 10:19:49;;;;;;;15.00;12.73;;;;;;;16.67;40.29;97312.28;5050909;28;20049;-71
2020/12/08 10:22:15;;;;;;;16.05;12.70;;;;;;;16.09;40.27;97304.53;5051923;28;20032;-70
2020/12/08 10:24:40;;;;;;;13.45;11.85;;;;;;;17.52;39.15;97316.75;5051332;28;20074;-74
2020/12/08 10:27:06;;;;;;;14.60;12.73;;;;;;;17.29;38.93;97313.63;5051812;28;20025;-74
2020/12/08 10:29:32;;;;;;;15.30;12.55;;;;;;;16.11;40.68;97315.16;5052060;28;20025;-74
2020/12/08 10:31:58;;;;;;;14.65;12.50;;;;;;;17.71;38.84;97320.44;5052514;28;20074;-75
2020/12/08 10:34:23;;;;;;;17.67;12.88;;;;;;;16.92;40.01;97314.09;5052140;28;20065;-74
2020/12/08 10:36:49;;;;;;;14.23;11.82;;;;;;;16.17;40.19;97303.97;5051348;28;20025;-73
2020/12/08 10:39:14;;;;;;;12.45;10.15;;;;;;;17.59;38.22;97314.50;5047826;28;20414;-73
2020/12/08 10:41:40;;;;;;;15.63;12.10;;;;;;;17.21;38.61;97316.97;5050347;28;20100;-75
2020/12/08 10:44:08;;;;;;;14.70;12.82;;;;;;;17.42;38.74;97311.34;5051915;28;20025;-76
2020/12/08 10:46:37;;;;;;;14.57;12.43;;;;;;;16.38;40.38;97303.94;5040603;28;20036;-71
2020/12/08 10:49:06;;;;;;;15.45;12.02;;;;;;;17.31;38.36;97303.22;5043276;28;20051;-75
2020/12/08 10:51:32;;;;;;;11.75;10.43;;;;;;;17.97;38.52;97312.03;5051764;28;20391;-75
2020/12/08 10:53:57;;;;;;;13.55;11.98;;;;;;;18.29;36.61;97308.72;5059277;28;20021;-75
2020/12/08 10:56:24;;;;;;;12.45;10.75;;;;;;;19.52;34.34;97285.22;5051061;28;20025;-75
2020/12/08 10:58:50;;;;;;;12.82;11.20;;;;;;;18.85;35.98;97298.25;5050174;28;20393;-76
2020/12/08 11:01:17;;;;;;;12.80;11.13;;;;;;;18.77;35.91;97292.28;5049654;28;20032;-77
2020/12/08 11:03:43;;;;;;;12.95;11.05;;;;;;;19.99;33.95;97291.59;5057927;28;20063;-79
2020/12/08 11:06:08;;;;;;;14.60;11.85;;;;;;;17.43;37.09;97291.13;5057253;28;20028;-78
2020/12/08 11:08:33;;;;;;;12.70;10.98;;;;;;;19.65;34.43;97278.16;5049639;28;20108;-77
2020/12/08 11:10:59;;;;;;;12.63;10.63;;;;;;;18.93;34.77;97278.41;5055591;28;20025;-79
2020/12/08 11:13:24;;;;;;;13.35;11.57;;;;;;;17.87;36.84;97287.53;5055461;28;20036;-78
2020/12/08 11:15:49;;;;;;;12.52;9.40;;;;;;;19.93;33.67;97277.13;5056350;28;20119;-77
2020/12/08 11:18:15;;;;;;;12.30;10.10;;;;;;;19.53;33.20;97284.09;5053927;28;20375;-76
2020/12/08 11:20:40;;;;;;;13.00;10.95;;;;;;;17.75;35.68;97304.25;5043632;28;20028;-77